Time;durP1;ratioP1;P1;durP2;ratioP2;P2;SDS_P1;SDS_P2;PMS_P1;PMS_P2;Temp;Humidity;BMP_temperature;BMP_pressure;BME280_temperature;BME280_humidity;BME280_pressure;Samples;Min_cycle;Max_cycle;Signal;HPM_P1;HPM_P2
2022/05/24 00:02:23;;;;;;;17.73;11.38;;;;;;;;;;5033203;28;20421;-76
2022/05/24 00:04:49;;;;;;;16.00;11.75;;;;;;;;;;5032610;28;20414;-77
2022/05/24 00:07:15;;;;;;;15.27;11.90;;;;;;;;;;5042607;28;20426;-77
2022/05/24 00:09:41;;;;;;;15.38;11.18;;;;;;;;;;5011277;28;20423;-77
2022/05/24 00:12:07;;;;;;;15.40;11.38;;;;;;;;;;5021868;28;20429;-77
2022/05/24 00:17:18;;;;;;;19.05;11.45;;;;;;;;;;5035243;28;20428;-77
2022/05/24 00:19:44;;;;;;;14.45;9.68;;;;;;;;;;5030210;28;20418;-76
2022/05/24 00:22:10;;;;;;;12.65;9.32;;;;;;;;;;4993992;28;20423;-76
2022/05/24 00:24:36;;;;;;;13.88;9.32;;;;;;;;;;5034987;28;20826;-77
2022/05/24 00:27:03;;;;;;;14.73;9.32;;;;;;;;;;5000444;28;20422;-76
2022/05/24 00:29:29;;;;;;;13.70;9.40;;;;;;;;;;5038452;28;20936;-76
2022/05/24 00:31:55;;;;;;;12.73;8.80;;;;;;;;;;5013898;28;20428;-76
2022/05/24 00:34:21;;;;;;;12.73;8.87;;;;;;;;;;5011484;28;20530;-76
2022/05/24 00:36:47;;;;;;;12.80;9.18;;;;;;;;;;5038926;28;20439;-76
2022/05/24 00:39:13;;;;;;;12.32;9.32;;;;;;;;;;5013547;28;20773;-76
2022/05/24 00:41:45;;;;;;;12.65;9.50;;;;;;;;;;5015516;28;21517;-77
2022/05/24 00:44:41;;;;;;;14.97;10.07;;;;;;;;;;5038732;28;20855;-76
2022/05/24 00:47:12;;;;;;;15.77;10.83;;;;;;;;;;5013280;28;20450;-76
2022/05/24 00:49:53;;;;;;;16.75;10.57;;;12.00;99.90;;;;;;5015226;28;20434;-77
2022/05/24 00:52:19;;;;;;;15.38;10.80;;;;;;;;;;5033761;28;20428;-76
2022/05/24 00:54:45;;;;;;;17.20;11.82;;;;;;;;;;5013354;28;20433;-76
2022/05/24 00:57:34;;;;;;;15.60;11.35;;;12.30;99.90;;;;;;5014778;28;20425;-76
2022/05/24 01:00:03;;;;;;;15.85;11.73;;;;;;;;;;5035333;28;20416;-76
2022/05/24 01:02:29;;;;;;;15.50;10.82;;;;;;;;;;5032352;28;20426;-76
2022/05/24 01:04:57;;;;;;;16.77;11.18;;;;;;;;;;5009987;28;21065;-76
2022/05/24 01:07:23;;;;;;;15.30;11.20;;;;;;;;;;4988592;28;20423;-76
2022/05/24 01:09:58;;;;;;;17.88;12.00;;;;;;;;;;5033069;28;20503;-77
2022/05/24 01:12:37;;;;;;;14.95;12.13;;;;;;;;;;5035197;28;20411;-76
2022/05/24 01:15:05;;;;;;;16.98;12.00;;;;;;;;;;5030971;28;20500;-76
2022/05/24 01:17:32;;;;;;;19.40;13.43;;;;;;;;;;5009275;28;20423;-75
2022/05/24 01:19:58;;;;;;;20.83;13.48;;;;;;;;;;5015825;28;20464;-75
2022/05/24 01:22:58;;;;;;;19.27;13.65;;;12.00;99.90;;;;;;5017457;28;20420;-75
2022/05/24 01:25:24;;;;;;;19.07;14.27;;;;;;;;;;5016538;28;20432;-75
2022/05/24 01:27:50;;;;;;;21.48;14.68;;;;;;;;;;5031401;28;20483;-75
2022/05/24 01:30:16;;;;;;;18.98;14.57;;;;;;;;;;5009576;28;20448;-75
2022/05/24 01:38:19;;;;;;;18.00;13.63;;;12.20;99.90;;;;;;5039309;28;20497;-76
2022/05/24 01:40:47;;;;;;;17.73;13.50;;;12.00;99.90;;;;;;5056793;28;20408;-76
2022/05/24 01:43:14;;;;;;;20.15;13.73;;;;;;;;;;5010931;28;20417;-76
2022/05/24 01:45:44;;;;;;;18.70;13.25;;;;;;;;;;5032594;28;20433;-76
2022/05/24 01:48:15;;;;;;;17.50;13.33;;;;;;;;;;5036010;28;21000;-76
2022/05/24 01:50:44;;;;;;;18.75;13.93;;;12.10;99.90;;;;;;5019273;28;20467;-76
2022/05/24 01:53:13;;;;;;;16.75;13.20;;;;;;;;;;5018009;28;20420;-76
2022/05/24 01:55:56;;;;;;;17.95;13.10;;;12.30;99.90;;;;;;5020778;28;20417;-76
2022/05/24 01:58:26;;;;;;;17.95;12.98;;;;;;;;;;5017837;28;20794;-76
2022/05/24 02:01:30;;;;;;;18.20;12.90;;;12.20;99.90;;;;;;5023522;28;20531;-76
2022/05/24 02:03:56;;;;;;;17.85;12.80;;;;;;;;;;5020489;28;20530;-76
2022/05/24 02:06:25;;;;;;;18.35;13.30;;;12.40;99.90;;;;;;5035606;28;20429;-76
2022/05/24 02:08:52;;;;;;;22.08;13.85;;;12.30;99.90;;;;;;5016931;28;20425;-76
2022/05/24 02:11:20;;;;;;;16.33;13.07;;;;;;;;;;5035341;28;20424;-76
2022/05/24 02:13:48;;;;;;;18.33;13.40;;;;;;;;;;5037382;28;20483;-76
2022/05/24 02:16:16;;;;;;;19.73;13.80;;;;;;;;;;5033649;28;20920;-75
2022/05/24 02:18:45;;;;;;;19.73;13.23;;;12.60;99.90;;;;;;5033177;28;20478;-76
2022/05/24 02:21:11;;;;;;;20.70;13.80;;;;;;;;;;5036154;28;20497;-76
2022/05/24 02:23:40;;;;;;;20.85;14.55;;;;;;;;;;5037181;28;20421;-75
2022/05/24 02:26:08;;;;;;;19.13;14.50;;;;;;;;;;5014493;28;20427;-76
2022/05/24 02:28:34;;;;;;;20.60;14.50;;;;;;;;;;5023667;28;20937;-76
2022/05/24 02:31:01;;;;;;;19.70;15.30;;;;;;;;;;5019534;28;20409;-76
2022/05/24 02:33:28;;;;;;;21.45;15.52;;;;;;;;;;5016371;28;20424;-77
2022/05/24 02:35:54;;;;;;;23.65;15.82;;;;;;;;;;5017854;28;20419;-76
2022/05/24 02:38:21;;;;;;;23.52;15.90;;;12.60;99.90;;;;;;5033689;28;20436;-76
2022/05/24 02:43:32;;;;;;;26.02;17.83;;;;;;;;;;5034875;28;20504;-79
2022/05/24 02:45:58;;;;;;;27.47;19.07;;;;;;;;;;5013505;28;21003;-76
2022/05/24 02:48:25;;;;;;;26.08;18.75;;;;;;;;;;5025629;28;20457;-76
2022/05/24 02:50:51;;;;;;;26.20;19.50;;;;;;;;;;5041413;28;20491;-76
2022/05/24 02:53:17;;;;;;;28.17;19.20;;;;;;;;;;5016439;28;20418;-76
2022/05/24 02:55:42;;;;;;;28.15;20.25;;;13.10;99.90;;;;;;5031821;28;20417;-77
2022/05/24 02:58:08;;;;;;;31.45;21.52;;;;;;;;;;5021253;28;20523;-76
2022/05/24 03:00:35;;;;;;;33.97;22.42;;;;;;;;;;5003162;28;20524;-76
2022/05/24 03:03:01;;;;;;;35.30;23.33;;;;;;;;;;5016403;28;20475;-76
2022/05/24 03:05:29;;;;;;;39.28;24.10;;;;;;;;;;5032386;28;20501;-77
2022/05/24 03:10:41;;;;;;;38.08;25.75;;;;;;;;;;5034224;28;20430;-77
2022/05/24 03:15:52;;;;;;;40.95;27.30;;;;;;;;;;5034219;28;20417;-76
2022/05/24 03:18:20;;;;;;;42.33;28.00;;;13.10;99.90;;;;;;5021684;28;20429;-77
2022/05/24 03:20:46;;;;;;;46.93;29.43;;;;;;;;;;4998471;28;20424;-76
2022/05/24 03:23:13;;;;;;;46.75;28.95;;;;;;;;;;5033883;28;20421;-77
2022/05/24 03:25:39;;;;;;;45.30;30.42;;;;;;;;;;5043650;28;20423;-76
2022/05/24 03:28:06;;;;;;;50.42;31.80;;;;;;;;;;5000179;28;20425;-76
2022/05/24 03:30:36;;;;;;;49.63;32.20;;;13.30;99.90;;;;;;5031854;28;20452;-76
2022/05/24 03:33:02;;;;;;;51.53;32.03;;;;;;;;;;5006484;28;20417;-76
2022/05/24 03:35:29;;;;;;;51.85;32.92;;;;;;;;;;5016379;28;20474;-76
2022/05/24 03:37:55;;;;;;;48.93;32.10;;;;;;;;;;5032193;28;20457;-76
2022/05/24 03:40:21;;;;;;;48.88;31.60;;;;;;;;;;5030854;28;20548;-76
2022/05/24 03:42:51;;;;;;;50.72;33.20;;;;;;;;;;5032725;28;20878;-76
2022/05/24 03:45:18;;;;;;;52.80;33.08;;;;;;;;;;5034028;28;20435;-76
2022/05/24 03:47:45;;;;;;;55.22;33.53;;;;;;;;;;5033327;28;20421;-76
2022/05/24 03:50:11;;;;;;;49.53;32.67;;;13.30;99.90;;;;;;5015632;28;20421;-76
2022/05/24 03:52:37;;;;;;;50.30;32.42;;;;;;;;;;5029712;28;20460;-76
2022/05/24 03:55:04;;;;;;;51.55;32.05;;;13.70;99.90;;;;;;5014403;28;20415;-77
2022/05/24 04:00:16;;;;;;;49.95;31.85;;;;;;;;;;5033162;28;20414;-76
2022/05/24 04:02:42;;;;;;;43.17;28.63;;;;;;;;;;5012628;28;20500;-76
2022/05/24 04:05:09;;;;;;;43.05;27.92;;;;;;;;;;5034001;28;20788;-76
2022/05/24 04:07:36;;;;;;;41.43;27.30;;;;;;;;;;5032990;28;20413;-76
2022/05/24 04:10:03;;;;;;;41.53;27.73;;;;;;;;;;5015726;28;20401;-76
2022/05/24 04:12:29;;;;;;;41.17;28.08;;;;;;;;;;5030651;28;20432;-76
2022/05/24 04:14:55;;;;;;;37.72;26.40;;;;;;;;;;5031151;28;20474;-76
2022/05/24 04:17:21;;;;;;;40.97;26.92;;;;;;;;;;5019831;28;20437;-76
2022/05/24 04:19:47;;;;;;;40.40;27.95;;;;;;;;;;5036681;28;20912;-76
2022/05/24 04:22:13;;;;;;;39.63;26.40;;;;;;;;;;5015018;28;20429;-76
2022/05/24 04:24:39;;;;;;;38.83;25.70;;;;;;;;;;5031842;28;20504;-76
2022/05/24 04:27:07;;;;;;;37.53;25.25;;;13.80;99.90;;;;;;5023747;28;20427;-76
2022/05/24 04:29:33;;;;;;;36.75;24.23;;;;;;;;;;5031806;28;20990;-76
2022/05/24 04:31:59;;;;;;;32.00;21.83;;;;;;;;;;5046947;28;20440;-76
2022/05/24 04:34:25;;;;;;;28.00;20.30;;;13.60;99.90;;;;;;5058612;28;20496;-76
2022/05/24 04:36:51;;;;;;;29.23;20.95;;;;;;;;;;5021749;28;20808;-76
2022/05/24 04:39:17;;;;;;;32.13;20.92;;;;;;;;;;5031912;28;20429;-76
2022/05/24 04:44:28;;;;;;;27.17;18.67;;;;;;;;;;5037713;28;20437;-76
2022/05/24 04:47:10;;;;;;;27.85;19.30;;;;;;;;;;5030588;28;20793;-76
2022/05/24 04:49:41;;;;;;;27.03;19.10;;;;;;;;;;5016930;28;20397;-76
2022/05/24 04:52:07;;;;;;;25.67;18.77;;;;;;;;;;5032383;28;20516;-76
2022/05/24 04:54:34;;;;;;;26.77;18.73;;;;;;;;;;5031730;28;20467;-76
2022/05/24 04:57:00;;;;;;;27.08;17.92;;;;;;;;;;5015900;28;20441;-76
2022/05/24 04:59:26;;;;;;;26.50;17.63;;;;;;;;;;5015940;28;20966;-76
2022/05/24 05:01:52;;;;;;;24.70;17.55;;;;;;;;;;5030848;28;20421;-75
2022/05/24 05:04:24;;;;;;;24.77;17.88;;;;;;;;;;5032188;28;20429;-76
2022/05/24 05:06:50;;;;;;;24.00;17.08;;;;;;;;;;4999877;28;20433;-76
2022/05/24 05:09:16;;;;;;;25.25;16.83;;;;;;;;;;5013850;28;20421;-76
2022/05/24 05:11:42;;;;;;;23.90;16.80;;;;;;;;;;5032732;28;20505;-77
2022/05/24 05:14:09;;;;;;;25.52;16.63;;;;;;;;;;5014967;28;20436;-77
2022/05/24 05:16:38;;;;;;;23.50;16.70;;;;;;;;;;5035426;28;20538;-74
2022/05/24 05:19:05;;;;;;;22.77;15.95;;;;;;;;;;5040767;28;20857;-74
2022/05/24 05:21:31;;;;;;;22.27;16.08;;;;;;;;;;5018773;28;20421;-73
2022/05/24 05:23:58;;;;;;;23.80;16.52;;;13.80;99.90;;;;;;5018238;28;20485;-74
2022/05/24 05:26:24;;;;;;;23.02;15.90;;;;;;;;;;5025908;28;20426;-74
2022/05/24 05:28:51;;;;;;;25.73;16.38;;;;;;;;;;5043620;28;20555;-74
2022/05/24 05:31:17;;;;;;;24.70;17.17;;;;;;;;;;5049175;28;20446;-74
2022/05/24 05:33:44;;;;;;;27.57;19.20;;;;;;;;;;5045845;28;20425;-74
2022/05/24 05:36:11;;;;;;;27.65;20.25;;;;;;;;;;5038939;28;20449;-74
2022/05/24 05:38:37;;;;;;;27.80;21.23;;;;;;;;;;5018266;28;20408;-74
2022/05/24 05:41:04;;;;;;;34.65;22.88;;;;;;;;;;5028188;28;20499;-77
2022/05/24 05:43:30;;;;;;;38.28;23.35;;;;;;;;;;5032125;28;20435;-77
2022/05/24 05:45:58;;;;;;;33.28;23.55;;;13.70;99.90;;;;;;5019868;28;20769;-76
2022/05/24 05:48:24;;;;;;;37.28;23.98;;;;;;;;;;5032889;28;20516;-77
2022/05/24 05:50:50;;;;;;;34.55;22.73;;;;;;;;;;5013861;28;20413;-76
2022/05/24 05:53:17;;;;;;;33.85;21.85;;;;;;;;;;5017740;28;20478;-76
2022/05/24 05:55:43;;;;;;;30.73;20.98;;;;;;;;;;5017573;28;20453;-75
2022/05/24 05:58:10;;;;;;;34.40;21.35;;;13.90;99.90;;;;;;5014940;28;20429;-75
2022/05/24 06:00:41;;;;;;;33.53;20.15;;;13.90;99.90;;;;;;5016613;28;21483;-75
2022/05/24 06:03:07;;;;;;;28.42;19.27;;;;;;;;;;5033702;28;20912;-75
2022/05/24 06:05:33;;;;;;;29.33;18.33;;;13.90;99.90;;;;;;5033912;28;20508;-75
2022/05/24 06:07:59;;;;;;;30.52;18.90;;;;;;;;;;5035768;28;20484;-75
2022/05/24 06:10:26;;;;;;;30.90;20.08;;;;;;;;;;5036108;28;20429;-76
2022/05/24 06:12:52;;;;;;;29.55;19.00;;;;;;;;;;5012933;28;20432;-76
2022/05/24 06:15:19;;;;;;;29.15;19.45;;;;;;;;;;5014484;28;20460;-76
2022/05/24 06:17:52;;;;;;;29.90;19.55;;;13.90;99.90;;;;;;5035680;28;20413;-75
2022/05/24 06:20:20;;;;;;;30.95;19.42;;;14.10;99.90;;;;;;5034270;28;20444;-76
2022/05/24 06:22:52;;;;;;;30.25;19.35;;;;;;;;;;5032605;28;20539;-76
2022/05/24 06:25:18;;;;;;;28.13;19.00;;;;;;;;;;5030642;28;20417;-75
2022/05/24 06:27:44;;;;;;;29.05;18.13;;;;;;;;;;5042637;28;20422;-75
2022/05/24 06:30:11;;;;;;;27.17;16.80;;;;;;;;;;5030431;28;20424;-76
2022/05/24 06:32:37;;;;;;;27.00;16.85;;;;;;;;;;5032105;28;20503;-76
2022/05/24 06:35:03;;;;;;;25.03;15.93;;;;;;;;;;5034203;28;20452;-76
2022/05/24 06:37:30;;;;;;;27.48;16.92;;;;;;;;;;5034387;28;20932;-76
2022/05/24 06:39:57;;;;;;;27.17;16.27;;;;;;;;;;5032738;28;20516;-76
2022/05/24 06:42:23;;;;;;;24.45;15.23;;;;;;;;;;5046807;28;20416;-76
2022/05/24 06:44:49;;;;;;;28.58;15.45;;;;;;;;;;5032368;28;20631;-76
2022/05/24 06:47:15;;;;;;;24.80;14.80;;;;;;;;;;5000808;28;20426;-76
2022/05/24 06:49:42;;;;;;;23.23;14.15;;;;;;;;;;5016225;28;20429;-75
2022/05/24 06:52:08;;;;;;;19.65;12.75;;;;;;;;;;5032007;28;20414;-75
2022/05/24 06:54:35;;;;;;;21.70;12.73;;;;;;;;;;5035593;28;20401;-75
2022/05/24 06:57:01;;;;;;;21.35;13.13;;;;;;;;;;5036789;28;20930;-74
2022/05/24 07:02:27;;;;;;;15.48;10.05;;;;;;;;;;5034530;28;20445;-75
2022/05/24 07:04:57;;;;;;;15.48;9.18;;;;;;;;;;5036217;28;20437;-75
2022/05/24 07:07:24;;;;;;;11.82;7.72;;;;;;;;;;5016191;28;20451;-75
2022/05/24 07:09:51;;;;;;;12.73;8.13;;;14.50;99.90;;;;;;5034081;28;20413;-74
2022/05/24 07:12:18;;;;;;;13.85;7.60;;;14.50;99.90;;;;;;5031950;28;20508;-75
2022/05/24 07:14:44;;;;;;;11.73;7.07;;;;;;;;;;5014669;28;20425;-75
2022/05/24 07:17:10;;;;;;;13.82;7.50;;;;;;;;;;5031758;28;20429;-75
2022/05/24 07:19:38;;;;;;;13.80;7.30;;;14.50;99.90;;;;;;5031958;28;20426;-75
2022/05/24 07:22:05;;;;;;;10.45;7.00;;;14.30;99.90;;;;;;5019694;28;20437;-75
2022/05/24 07:24:32;;;;;;;11.95;6.72;;;;;;;;;;5015621;28;20422;-75
2022/05/24 07:26:58;;;;;;;16.73;7.35;;;;;;;;;;5009222;28;20484;-75
2022/05/24 07:29:24;;;;;;;12.25;6.38;;;;;;;;;;5032611;28;20432;-75
2022/05/24 07:31:50;;;;;;;12.53;6.77;;;;;;;;;;5018890;28;20421;-75
2022/05/24 07:34:17;;;;;;;13.45;7.55;;;;;;;;;;5033305;28;20429;-75
2022/05/24 07:36:43;;;;;;;15.60;8.47;;;;;;;;;;5015143;28;20429;-76
2022/05/24 07:39:09;;;;;;;16.17;8.93;;;;;;;;;;5040539;28;21307;-76
2022/05/24 07:47:06;;;;;;;18.15;10.60;;;;;;;;;;4992967;28;20428;-76
2022/05/24 07:49:33;;;;;;;17.53;10.47;;;;;;;;;;4990391;28;20420;-75
2022/05/24 07:51:59;;;;;;;17.73;11.20;;;;;;;;;;5007632;28;20477;-75
2022/05/24 07:54:25;;;;;;;15.83;11.10;;;;;;;;;;5009412;28;20811;-74
2022/05/24 07:56:52;;;;;;;14.20;11.02;;;;;;;;;;5012516;28;20845;-74
2022/05/24 07:59:18;;;;;;;20.47;12.87;;;;;;;;;;5007420;28;20463;-75
2022/05/24 08:01:45;;;;;;;22.50;14.02;;;;;;;;;;4992298;28;20420;-74
2022/05/24 08:04:11;;;;;;;24.88;13.77;;;;;;;;;;4993059;28;20455;-74
2022/05/24 08:06:37;;;;;;;22.00;13.20;;;;;;;;;;5024787;28;20490;-74
2022/05/24 08:09:04;;;;;;;22.00;13.13;;;13.80;99.90;;;;;;4992316;28;20452;-75
2022/05/24 08:11:30;;;;;;;21.92;14.48;;;;;;;;;;5002052;28;20422;-75
2022/05/24 08:13:58;;;;;;;21.58;13.65;;;;;;;;;;4997715;28;20427;-74
2022/05/24 08:16:26;;;;;;;19.55;12.25;;;14.30;99.90;;;;;;5006670;28;20451;-75
2022/05/24 08:18:51;;;;;;;20.05;13.20;;;14.40;99.90;;;;;;5009140;28;20432;-74
2022/05/24 08:21:18;;;;;;;21.23;12.97;;;;;;;;;;4989267;28;20435;-74
2022/05/24 08:23:44;;;;;;;19.80;12.70;;;;;;;;;;5014988;28;20417;-74
2022/05/24 08:26:10;;;;;;;18.45;12.85;;;;;;;;;;5007573;28;20433;-74
2022/05/24 08:28:36;;;;;;;18.48;12.07;;;;;;;;;;5010065;28;20479;-74
2022/05/24 08:31:02;;;;;;;15.52;11.30;;;;;;;;;;5009548;28;20927;-74
2022/05/24 08:33:28;;;;;;;21.90;11.48;;;;;;;;;;5008152;28;20908;-75
2022/05/24 08:35:56;;;;;;;17.35;10.45;;;;;;;;;;5007607;28;20908;-75
2022/05/24 08:38:23;;;;;;;13.88;10.35;;;14.40;99.90;;;;;;5008667;28;20421;-74
2022/05/24 08:40:49;;;;;;;18.70;11.85;;;;;;;;;;4987635;28;20931;-75
2022/05/24 08:43:33;;;;;;;19.80;12.32;;;;;;;;;;5008789;28;20439;-75
2022/05/24 08:49:05;;;;;;;20.10;13.88;;;14.30;99.90;;;;;;5007807;28;20772;-75
2022/05/24 08:51:39;;;;;;;17.92;13.55;;;;;;;;;;5011255;28;20427;-75
2022/05/24 08:54:13;;;;;;;19.60;14.27;;;;;;;;;;4992955;28;20430;-75
2022/05/24 08:56:50;;;;;;;18.37;13.30;;;14.60;99.90;;;;;;4998603;28;20454;-75
2022/05/24 08:59:18;;;;;;;20.30;13.23;;;;;;;;;;4998208;28;20908;-75
2022/05/24 09:01:45;;;;;;;19.27;14.07;;;15.00;99.90;;;;;;5007632;28;20424;-75
2022/05/24 09:04:12;;;;;;;17.70;12.10;;;;;;;;;;5009547;28;20437;-75
2022/05/24 09:06:51;;;;;;;12.23;8.68;;;14.70;99.90;;;;;;4993774;28;20447;-74
2022/05/24 09:09:42;;;;;;;9.10;4.28;;;14.30;99.90;;;;;;5008639;28;20506;-75
2022/05/24 09:12:10;;;;;;;8.18;4.18;;;13.90;99.90;;;;;;4990845;28;20428;-76
2022/05/24 09:14:55;;;;;;;5.57;4.03;;;;;;;;;;5008478;28;20510;-73
2022/05/24 09:17:48;;;;;;;5.20;3.10;;;;;;;;;;5000869;28;20430;-76
2022/05/24 09:20:26;;;;;;;7.43;3.70;;;;;;;;;;4989017;28;20451;-74
2022/05/24 09:23:01;;;;;;;5.85;2.90;;;13.70;99.90;;;;;;4990465;28;20758;-75
2022/05/24 09:25:27;;;;;;;6.38;3.33;;;;;;;;;;5007268;28;20424;-75
2022/05/24 09:27:54;;;;;;;4.80;2.70;;;;;;;;;;4976068;28;20428;-75
2022/05/24 09:30:26;;;;;;;5.68;2.85;;;;;;;;;;5016862;28;20591;-75
2022/05/24 09:32:53;;;;;;;5.97;2.70;;;;;;;;;;5002812;28;20422;-75
2022/05/24 09:35:22;;;;;;;4.85;2.53;;;;;;;;;;5005509;28;20768;-75
2022/05/24 09:38:13;;;;;;;4.90;2.75;;;14.00;99.90;;;;;;5007798;28;20547;-75
2022/05/24 09:40:57;;;;;;;4.45;2.38;;;;;;;;;;5007504;28;20908;-75
2022/05/24 09:43:29;;;;;;;5.38;2.65;;;;;;;;;;4994928;28;20486;-75
2022/05/24 09:46:01;;;;;;;6.35;2.60;;;;;;;;;;4998118;28;20427;-75
2022/05/24 09:48:30;;;;;;;6.32;2.80;;;13.90;99.90;;;;;;5001064;28;20499;-75
2022/05/24 09:50:57;;;;;;;5.32;2.63;;;;;;;;;;5024762;28;20612;-75
2022/05/24 09:53:26;;;;;;;4.73;2.60;;;;;;;;;;5008891;28;20426;-75
2022/05/24 09:56:02;;;;;;;6.72;2.60;;;14.60;99.90;;;;;;5029343;28;20410;-76
2022/05/24 09:58:28;;;;;;;7.45;3.05;;;;;;;;;;5032367;28;20474;-75
2022/05/24 10:01:07;;;;;;;6.77;2.87;;;14.70;99.90;;;;;;5039702;28;20435;-75
2022/05/24 10:03:48;;;;;;;6.10;2.70;;;14.70;99.90;;;;;;5012815;28;20426;-75
2022/05/24 10:06:29;;;;;;;5.53;3.10;;;14.40;99.90;;;;;;5015700;28;20518;-75
2022/05/24 10:08:58;;;;;;;6.68;3.33;;;;;;;;;;5025443;28;20423;-75
2022/05/24 10:11:31;;;;;;;6.38;3.60;;;;;;;;;;5032217;28;20770;-75
2022/05/24 10:14:37;;;;;;;6.95;3.35;;;14.90;99.90;;;;;;5014477;28;20427;-75
2022/05/24 10:17:22;;;;;;;9.77;3.88;;;;;;;;;;5020623;28;20921;-76
2022/05/24 10:20:25;;;;;;;9.32;4.40;;;14.50;99.90;;;;;;5031243;28;20418;-77
2022/05/24 10:22:51;;;;;;;16.15;5.72;;;;;;;;;;5028139;28;20430;-77
2022/05/24 10:25:21;;;;;;;23.17;6.57;;;;;;;;;;5031001;28;20782;-78
2022/05/24 10:27:53;;;;;;;16.35;6.28;;;;;;;;;;5014339;28;20418;-79
2022/05/24 10:30:27;;;;;;;10.10;5.83;;;;;;;;;;5035396;28;20421;-77
2022/05/24 10:39:11;;;;;;;10.30;6.93;;;;;;;;;;5032665;28;20436;-76
2022/05/24 10:41:40;;;;;;;12.18;8.30;;;;;;;;;;5028291;28;20422;-76
2022/05/24 10:44:12;;;;;;;10.27;6.82;;;;;;;;;;5029190;28;20438;-79
2022/05/24 10:46:57;;;;;;;10.18;6.53;;;;;;;;;;5031944;28;20437;-80
2022/05/24 10:49:47;;;;;;;7.00;5.40;;;;;;;;;;5034420;28;20761;-83
2022/05/24 10:52:22;;;;;;;8.68;4.78;;;;;;;;;;5020162;28;20411;-82
2022/05/24 10:54:59;;;;;;;6.57;3.50;;;13.80;99.90;;;;;;5031680;28;20426;-77
2022/05/24 10:57:30;;;;;;;8.85;4.60;;;;;;;;;;5029713;28;20513;-75
2022/05/24 10:59:56;;;;;;;8.50;4.78;;;;;;;;;;5027688;28;20447;-75
2022/05/24 11:02:37;;;;;;;7.40;4.10;;;13.90;99.90;;;;;;5029991;28;20778;-75
2022/05/24 11:05:14;;;;;;;7.43;3.50;;;14.30;99.90;;;;;;5029780;28;20427;-75
2022/05/24 11:07:40;;;;;;;3.97;2.50;;;13.90;99.90;;;;;;5019816;28;20458;-75
2022/05/24 11:10:10;;;;;;;4.47;2.33;;;14.10;99.90;;;;;;5010175;28;20485;-75
2022/05/24 11:12:39;;;;;;;4.38;2.53;;;;;;;;;;5028773;28;20480;-75
2022/05/24 11:15:16;;;;;;;6.68;3.00;;;;;;;;;;5012714;28;20492;-75
2022/05/24 11:17:42;;;;;;;5.68;3.00;;;;;;;;;;5030078;28;20957;-75
2022/05/24 11:20:10;;;;;;;4.23;2.90;;;14.40;99.90;;;;;;5012730;28;20427;-74
2022/05/24 11:22:41;;;;;;;4.35;3.15;;;;;;;;;;4994444;28;20426;-74
2022/05/24 11:25:11;;;;;;;5.50;2.67;;;;;;;;;;5012776;28;20565;-76
2022/05/24 11:27:44;;;;;;;4.60;2.20;;;14.90;99.90;;;;;;5011838;28;20791;-74
2022/05/24 11:30:10;;;;;;;4.00;2.30;;;;;;;;;;5028323;28;20766;-75
2022/05/24 11:32:36;;;;;;;5.28;2.30;;;;;;;;;;5034428;28;20910;-74
2022/05/24 11:35:23;;;;;;;6.03;2.50;;;;;;;;;;5028575;28;20430;-74
2022/05/24 11:38:10;;;;;;;5.47;2.20;;;;;;;;;;5021792;28;20422;-74
2022/05/24 11:40:36;;;;;;;4.22;2.00;;;;;;;;;;5044436;28;20477;-74
2022/05/24 11:43:06;;;;;;;5.37;2.40;;;;;;;;;;5029070;28;20432;-74
2022/05/24 11:45:32;;;;;;;3.70;2.13;;;;;;;;;;5027019;28;20573;-73
2022/05/24 11:47:58;;;;;;;5.93;1.77;;;;;;;;;;5021470;28;22273;-73
2022/05/24 11:50:43;;;;;;;3.38;1.80;;;;;;;;;;5024436;28;20426;-72
2022/05/24 11:53:33;;;;;;;3.55;1.65;;;15.30;99.90;;;;;;5032797;28;20422;-74
2022/05/24 11:56:01;;;;;;;4.00;1.60;;;15.30;99.90;;;;;;5008849;28;20426;-73
2022/05/24 11:58:30;;;;;;;4.78;1.58;;;15.60;99.90;;;;;;5027741;28;20502;-73
2022/05/24 12:01:30;;;;;;;3.38;1.38;;;15.60;99.90;;;;;;5030800;28;20570;-73
2022/05/24 12:10:03;;;;;;;4.20;1.33;;;16.10;99.90;;;;;;5032604;28;20419;-73
2022/05/24 12:12:33;;;;;;;3.63;1.40;;;16.30;99.90;;;;;;5028502;28;20496;-73
2022/05/24 12:15:09;;;;;;;4.07;1.40;;;;;;;;;;5047227;28;20514;-74
2022/05/24 12:17:35;;;;;;;5.15;1.27;;;;;;;;;;5025316;28;20472;-74
2022/05/24 12:20:01;;;;;;;9.45;2.53;;;14.80;99.90;;;;;;5027285;28;20427;-77
2022/05/24 12:22:30;;;;;;;4.13;2.17;;;13.70;99.90;;;;;;5028870;28;20511;-76
2022/05/24 12:25:06;;;;;;;7.20;2.10;;;12.80;99.90;;;;;;5012739;28;20483;-76
2022/05/24 12:27:47;;;;;;;8.88;3.00;;;;;;;;;;4998581;28;20427;-75
2022/05/24 12:30:24;;;;;;;5.60;3.17;;;13.40;99.90;;;;;;5029742;28;20418;-75
2022/05/24 12:32:52;;;;;;;8.73;3.35;;;;;;;;;;5026856;28;20458;-75
2022/05/24 12:35:19;;;;;;;6.60;3.22;;;;;;;;;;5029293;28;20501;-75
2022/05/24 12:37:48;;;;;;;6.80;3.27;;;;;;;;;;5027995;28;20909;-74
2022/05/24 12:40:23;;;;;;;5.78;2.80;;;14.00;99.90;;;;;;5030275;28;20461;-74
2022/05/24 12:42:51;;;;;;;6.93;2.73;;;13.70;99.90;;;;;;5014774;28;20421;-75
2022/05/24 12:45:36;;;;;;;7.18;3.88;;;14.00;99.90;;;;;;5025251;28;20481;-75
2022/05/24 12:48:03;;;;;;;5.97;2.35;;;14.30;99.90;;;;;;5029361;28;20429;-75
2022/05/24 12:50:38;;;;;;;4.40;2.00;;;14.30;99.90;;;;;;5028291;28;20448;-75
2022/05/24 12:53:10;;;;;;;5.40;1.83;;;;;;;;;;5017021;28;20420;-73
2022/05/24 12:55:57;;;;;;;3.85;1.40;;;13.80;99.90;;;;;;5027997;28;20477;-74
2022/05/24 12:58:26;;;;;;;3.15;1.20;;;;;;;;;;5029400;28;20906;-74
2022/05/24 13:01:06;;;;;;;3.97;1.30;;;13.70;99.90;;;;;;5022812;28;20427;-74
2022/05/24 13:03:32;;;;;;;3.13;1.35;;;13.80;99.90;;;;;;5030293;28;20430;-73
2022/05/24 13:05:58;;;;;;;4.80;1.50;;;13.60;99.90;;;;;;5026230;28;20422;-74
2022/05/24 13:08:25;;;;;;;3.28;1.65;;;;;;;;;;5010181;28;20434;-73
2022/05/24 13:10:51;;;;;;;5.03;1.60;;;13.80;99.90;;;;;;5035902;28;20419;-74
2022/05/24 13:13:24;;;;;;;6.18;2.10;;;;;;;;;;5027418;28;20441;-73
2022/05/24 13:15:52;;;;;;;4.65;1.95;;;13.80;99.90;;;;;;5012477;28;20449;-73
2022/05/24 13:18:29;;;;;;;5.80;2.28;;;13.80;99.90;;;;;;5029363;28;20430;-74
2022/05/24 13:20:57;;;;;;;4.93;2.30;;;;;;;;;;5011846;28;20475;-77
2022/05/24 13:23:25;;;;;;;6.95;2.40;;;;;;;;;;5010365;28;20451;-77
2022/05/24 13:25:54;;;;;;;4.40;2.60;;;14.20;99.90;;;;;;5025558;28;20445;-77
2022/05/24 13:28:39;;;;;;;5.43;3.05;;;;;;;;;;5029078;28;20435;-75
2022/05/24 13:34:29;;;;;;;6.75;3.50;;;14.10;99.90;;;;;;5019127;28;20573;-76
2022/05/24 13:37:00;;;;;;;6.97;4.00;;;;;;;;;;5013808;28;20513;-76
2022/05/24 13:39:27;;;;;;;8.02;4.13;;;;;;;;;;5033101;28;20411;-75
2022/05/24 13:41:56;;;;;;;8.25;4.78;;;;;;;;;;5031892;28;20513;-75
2022/05/24 13:44:22;;;;;;;9.25;4.90;;;;;;;;;;5032159;28;20435;-75
2022/05/24 13:46:51;;;;;;;9.43;5.40;;;;;;;;;;5051951;28;20439;-76
2022/05/24 13:49:29;;;;;;;8.82;6.20;;;;;;;;;;5033352;28;20965;-76
2022/05/24 13:52:11;;;;;;;11.82;6.28;;;;;;;;;;5019963;28;20415;-76
2022/05/24 13:54:37;;;;;;;10.88;7.15;;;;;;;;;;5035345;28;20428;-76
2022/05/24 13:57:04;;;;;;;10.33;7.10;;;;;;;;;;5019188;28;20961;-76
2022/05/24 13:59:30;;;;;;;10.77;8.00;;;;;;;;;;5036436;28;20529;-76
2022/05/24 14:01:57;;;;;;;10.27;7.63;;;;;;;;;;5018122;28;20421;-76
2022/05/24 14:04:28;;;;;;;10.43;6.95;;;14.70;99.90;;;;;;5017519;28;20494;-76
2022/05/24 14:06:58;;;;;;;11.25;6.82;;;;;;;;;;5014628;28;20427;-76
2022/05/24 14:09:25;;;;;;;12.65;6.63;;;;;;;;;;5035520;28;20413;-75
2022/05/24 14:12:13;;;;;;;10.65;6.57;;;14.70;99.90;;;;;;5042610;28;20495;-76
2022/05/24 14:14:43;;;;;;;9.13;6.22;;;;;;;;;;5026477;28;22196;-76
2022/05/24 14:17:09;;;;;;;9.70;6.88;;;;;;;;;;5013990;28;20472;-77
2022/05/24 14:19:35;;;;;;;9.25;6.82;;;;;;;;;;5027083;28;20486;-76
2022/05/24 14:22:02;;;;;;;9.30;7.53;;;;;;;;;;5031498;28;20421;-76
2022/05/24 14:24:29;;;;;;;11.63;7.33;;;;;;;;;;5001893;28;20716;-76
2022/05/24 14:26:56;;;;;;;8.80;6.68;;;;;;;;;;5029713;28;20916;-76
2022/05/24 14:29:27;;;;;;;10.05;6.88;;;14.40;99.90;;;;;;5031973;28;20425;-77
2022/05/24 14:31:54;;;;;;;9.48;6.68;;;;;;;;;;5029432;28;20449;-75
2022/05/24 14:34:21;;;;;;;11.70;7.93;;;14.50;99.90;;;;;;5013409;28;20428;-76
2022/05/24 14:36:50;;;;;;;10.40;6.90;;;14.60;99.90;;;;;;5018193;28;20479;-76
2022/05/24 14:39:16;;;;;;;10.18;7.10;;;;;;;;;;5033801;28;20803;-76
2022/05/24 14:41:43;;;;;;;11.52;7.28;;;;;;;;;;5016001;28;20462;-75
2022/05/24 14:44:11;;;;;;;9.38;6.65;;;;;;;;;;5027082;28;20407;-76
2022/05/24 14:46:39;;;;;;;7.57;6.20;;;15.10;99.90;;;;;;5028290;28;20430;-76
2022/05/24 14:49:09;;;;;;;8.95;6.60;;;;;;;;;;5035829;28;20480;-78
2022/05/24 14:51:47;;;;;;;7.95;6.82;;;;;;;;;;5018040;28;20491;-80
2022/05/24 14:54:14;;;;;;;9.63;7.20;;;;;;;;;;5033436;28;20440;-78
2022/05/24 14:56:40;;;;;;;9.68;6.50;;;;;;;;;;5035034;28;20429;-79
2022/05/24 14:59:07;;;;;;;9.82;6.15;;;;;;;;;;5001859;28;20425;-80
2022/05/24 15:01:33;;;;;;;11.35;6.68;;;;;;;;;;5033378;28;20514;-79